This is the latest recevied weather packets stored in our database for station/object IZ1MEU-13. If no packets are shown the sender has not sent any weather packets the latest 10 day(s).
| Time | Temp. | Humidity | Pressure | Rain* | Wind** | Luminosity | Snow |
|---|---|---|---|---|---|---|---|
| 1778092053 | 13.33° C | 61% | 1009.2 hPa | - | - | - | - |
| 1778090848 | 14.44° C | 60% | 1008.8 hPa | - | - | - | - |
| 1778089644 | 15° C | 60% | 1008.7 hPa | - | - | - | - |
| 1778088440 | 15° C | 59% | 1008.5 hPa | - | - | - | - |
| 1778087236 | 15.56° C | 57% | 1008.2 hPa | - | - | - | - |
| 1778086031 | 15° C | 55% | 1008.1 hPa | - | - | - | - |
| 1778084827 | 15.56° C | 53% | 1008 hPa | - | - | - | - |
| 1778083623 | 16.67° C | 52% | 1008 hPa | - | - | - | - |
| 1778082419 | 16.11° C | 51% | 1008 hPa | - | - | - | - |
| 1778081214 | 16.67° C | 50% | 1008 hPa | - | - | - | - |
| 1778080010 | 19.44° C | 45% | 1007.8 hPa | - | - | - | - |
| 1778078806 | 20° C | 45% | 1007.8 hPa | - | - | - | - |
| 1778077602 | 20° C | 44% | 1007.9 hPa | - | - | - | - |
| 1778076397 | 20° C | 45% | 1008.1 hPa | - | - | - | - |
| 1778075193 | 20.56° C | 45% | 1008.4 hPa | - | - | - | - |
| 1778073989 | 21.11° C | 47% | 1008.5 hPa | - | - | - | - |
| 1778072785 | 20° C | 49% | 1008.6 hPa | - | - | - | - |
| 1778071580 | 19.44° C | 49% | 1008.7 hPa | - | - | - | - |
| 1778070376 | 20° C | 49% | 1008.6 hPa | - | - | - | - |
| 1778069172 | 18.89° C | 51% | 1008.7 hPa | - | - | - | - |
| 1778067968 | 18.33° C | 50% | 1008.8 hPa | - | - | - | - |
| 1778066763 | 18.89° C | 51% | 1008.9 hPa | - | - | - | - |
| 1778065559 | 17.78° C | 54% | 1009.1 hPa | - | - | - | - |
| 1778064355 | 17.22° C | 56% | 1009.3 hPa | - | - | - | - |
| 1778063151 | 16.11° C | 57% | 1009.5 hPa | - | - | - | - |
* Rain since midnight (hover to see other rain measurements)
** Current wind speed in m/s (hover to see current wind gust speed)